sensor_id;sensor_type;location;lat;lon;timestamp;temperature;humidity
34558;DHT22;24708;48.888;8.736;2023-05-23T05:35:00;15.60;99.90
34558;DHT22;24708;48.888;8.736;2023-05-23T05:39:56;15.90;99.90
34558;DHT22;24708;48.888;8.736;2023-05-23T05:42:23;15.80;99.90
34558;DHT22;24708;48.888;8.736;2023-05-23T05:44:50;16.00;99.90
34558;DHT22;24708;48.888;8.736;2023-05-23T05:47:17;15.30;99.90
34558;DHT22;24708;48.888;8.736;2023-05-23T05:49:45;15.40;99.90
34558;DHT22;24708;48.888;8.736;2023-05-23T05:52:12;16.00;99.90
34558;DHT22;24708;48.888;8.736;2023-05-23T05:54:40;15.90;99.90
34558;DHT22;24708;48.888;8.736;2023-05-23T05:59:34;16.00;99.90
34558;DHT22;24708;48.888;8.736;2023-05-23T06:02:02;16.10;99.90
34558;DHT22;24708;48.888;8.736;2023-05-23T06:09:34;15.80;99.90
34558;DHT22;24708;48.888;8.736;2023-05-23T06:14:31;15.80;99.90
34558;DHT22;24708;48.888;8.736;2023-05-23T06:21:54;15.70;99.90
34558;DHT22;24708;48.888;8.736;2023-05-23T06:36:41;15.70;99.90
34558;DHT22;24708;48.888;8.736;2023-05-23T06:41:37;15.80;99.90
34558;DHT22;24708;48.888;8.736;2023-05-23T06:54:08;15.50;99.90
34558;DHT22;24708;48.888;8.736;2023-05-23T06:59:04;15.40;99.90
34558;DHT22;24708;48.888;8.736;2023-05-23T07:01:31;15.90;99.90
34558;DHT22;24708;48.888;8.736;2023-05-23T07:11:24;15.40;99.90
34558;DHT22;24708;48.888;8.736;2023-05-23T07:23:44;15.50;99.90
34558;DHT22;24708;48.888;8.736;2023-05-23T07:43:39;16.10;99.90
34558;DHT22;24708;48.888;8.736;2023-05-23T07:55:59;15.70;99.90
34558;DHT22;24708;48.888;8.736;2023-05-23T08:05:53;15.50;99.90
34558;DHT22;24708;48.888;8.736;2023-05-23T08:08:22;15.80;99.90
34558;DHT22;24708;48.888;8.736;2023-05-23T08:18:16;15.70;99.90
34558;DHT22;24708;48.888;8.736;2023-05-23T08:20:44;15.90;99.90
34558;DHT22;24708;48.888;8.736;2023-05-23T08:23:12;15.90;99.90
34558;DHT22;24708;48.888;8.736;2023-05-23T08:25:41;15.90;99.90
34558;DHT22;24708;48.888;8.736;2023-05-23T08:28:08;16.10;99.90
34558;DHT22;24708;48.888;8.736;2023-05-23T08:33:05;16.00;99.90
34558;DHT22;24708;48.888;8.736;2023-05-23T08:35:33;16.10;99.90
34558;DHT22;24708;48.888;8.736;2023-05-23T08:38:05;16.40;99.90
34558;DHT22;24708;48.888;8.736;2023-05-23T08:40:35;15.80;99.90
34558;DHT22;24708;48.888;8.736;2023-05-23T08:43:05;15.80;99.90
34558;DHT22;24708;48.888;8.736;2023-05-23T08:45:37;15.80;99.90
34558;DHT22;24708;48.888;8.736;2023-05-23T08:48:08;15.80;99.90
34558;DHT22;24708;48.888;8.736;2023-05-23T08:50:42;15.90;99.90
34558;DHT22;24708;48.888;8.736;2023-05-23T08:53:15;16.60;99.90
34558;DHT22;24708;48.888;8.736;2023-05-23T08:58:15;16.10;99.90
34558;DHT22;24708;48.888;8.736;2023-05-23T09:00:48;16.20;99.90
34558;DHT22;24708;48.888;8.736;2023-05-23T09:03:17;16.10;99.90
34558;DHT22;24708;48.888;8.736;2023-05-23T09:05:49;15.50;99.90
34558;DHT22;24708;48.888;8.736;2023-05-23T09:08:22;15.90;99.90
34558;DHT22;24708;48.888;8.736;2023-05-23T09:18:41;16.20;99.90
34558;DHT22;24708;48.888;8.736;2023-05-23T09:21:10;16.30;99.90
34558;DHT22;24708;48.888;8.736;2023-05-23T09:23:39;16.40;99.90
34558;DHT22;24708;48.888;8.736;2023-05-23T09:26:09;16.40;99.90
34558;DHT22;24708;48.888;8.736;2023-05-23T09:28:38;16.70;99.90
34558;DHT22;24708;48.888;8.736;2023-05-23T09:31:07;16.90;99.90
34558;DHT22;24708;48.888;8.736;2023-05-23T09:33:48;16.90;99.90
34558;DHT22;24708;48.888;8.736;2023-05-23T09:36:22;16.90;99.90
34558;DHT22;24708;48.888;8.736;2023-05-23T09:38:50;17.10;99.90
34558;DHT22;24708;48.888;8.736;2023-05-23T09:43:53;16.60;99.90
34558;DHT22;24708;48.888;8.736;2023-05-23T09:46:21;16.80;99.90
34558;DHT22;24708;48.888;8.736;2023-05-23T09:48:54;16.60;99.90
34558;DHT22;24708;48.888;8.736;2023-05-23T09:51:25;16.70;99.90
34558;DHT22;24708;48.888;8.736;2023-05-23T09:53:55;17.50;99.90
34558;DHT22;24708;48.888;8.736;2023-05-23T09:56:25;16.40;99.90
34558;DHT22;24708;48.888;8.736;2023-05-23T09:58:58;16.70;99.90
34558;DHT22;24708;48.888;8.736;2023-05-23T10:01:36;16.60;99.90
34558;DHT22;24708;48.888;8.736;2023-05-23T10:04:05;16.70;99.90
34558;DHT22;24708;48.888;8.736;2023-05-23T10:06:58;17.20;99.90
34558;DHT22;24708;48.888;8.736;2023-05-23T10:09:32;16.80;99.90
34558;DHT22;24708;48.888;8.736;2023-05-23T10:15:04;16.80;99.90
34558;DHT22;24708;48.888;8.736;2023-05-23T10:20:29;17.00;99.90
34558;DHT22;24708;48.888;8.736;2023-05-23T10:22:59;17.40;99.90
34558;DHT22;24708;48.888;8.736;2023-05-23T10:25:28;17.50;99.90
34558;DHT22;24708;48.888;8.736;2023-05-23T10:27:58;17.70;99.90
34558;DHT22;24708;48.888;8.736;2023-05-23T10:33:02;18.40;99.90
34558;DHT22;24708;48.888;8.736;2023-05-23T10:41:09;19.00;99.90
34558;DHT22;24708;48.888;8.736;2023-05-23T10:43:51;19.10;99.90
34558;DHT22;24708;48.888;8.736;2023-05-23T10:46:53;18.70;99.90
34558;DHT22;24708;48.888;8.736;2023-05-23T10:49:50;18.70;99.90
34558;DHT22;24708;48.888;8.736;2023-05-23T10:52:25;18.60;99.90
34558;DHT22;24708;48.888;8.736;2023-05-23T10:54:54;19.00;99.90
34558;DHT22;24708;48.888;8.736;2023-05-23T10:57:26;18.60;99.90
34558;DHT22;24708;48.888;8.736;2023-05-23T10:59:55;18.70;99.90
34558;DHT22;24708;48.888;8.736;2023-05-23T11:02:27;18.10;99.90
34558;DHT22;24708;48.888;8.736;2023-05-23T11:05:20;17.90;99.90
34558;DHT22;24708;48.888;8.736;2023-05-23T11:08:10;18.00;99.90
34558;DHT22;24708;48.888;8.736;2023-05-23T11:10:52;18.10;99.90
34558;DHT22;24708;48.888;8.736;2023-05-23T11:13:21;18.10;99.90
34558;DHT22;24708;48.888;8.736;2023-05-23T11:15:49;18.00;99.90
34558;DHT22;24708;48.888;8.736;2023-05-23T11:18:26;17.90;99.90
34558;DHT22;24708;48.888;8.736;2023-05-23T11:20:54;18.60;99.90
34558;DHT22;24708;48.888;8.736;2023-05-23T11:23:22;19.20;99.90
34558;DHT22;24708;48.888;8.736;2023-05-23T11:25:51;19.00;99.90
34558;DHT22;24708;48.888;8.736;2023-05-23T11:28:20;19.80;99.90
34558;DHT22;24708;48.888;8.736;2023-05-23T11:30:48;19.90;99.90
34558;DHT22;24708;48.888;8.736;2023-05-23T11:33:16;21.00;99.90
34558;DHT22;24708;48.888;8.736;2023-05-23T11:35:45;20.80;99.90
34558;DHT22;24708;48.888;8.736;2023-05-23T11:38:14;20.70;99.90
34558;DHT22;24708;48.888;8.736;2023-05-23T11:40:44;20.90;99.90
34558;DHT22;24708;48.888;8.736;2023-05-23T11:43:16;20.70;99.90
34558;DHT22;24708;48.888;8.736;2023-05-23T11:45:44;20.70;99.90
34558;DHT22;24708;48.888;8.736;2023-05-23T11:48:15;20.70;99.90
34558;DHT22;24708;48.888;8.736;2023-05-23T11:53:16;20.60;99.90
34558;DHT22;24708;48.888;8.736;2023-05-23T11:55:50;20.00;99.90
34558;DHT22;24708;48.888;8.736;2023-05-23T11:58:47;19.60;99.90
34558;DHT22;24708;48.888;8.736;2023-05-23T12:01:18;19.90;99.90
34558;DHT22;24708;48.888;8.736;2023-05-23T12:03:47;20.60;99.90
34558;DHT22;24708;48.888;8.736;2023-05-23T12:06:19;20.00;99.90
34558;DHT22;24708;48.888;8.736;2023-05-23T12:08:48;19.90;99.90
34558;DHT22;24708;48.888;8.736;2023-05-23T12:11:16;20.20;99.90
34558;DHT22;24708;48.888;8.736;2023-05-23T12:13:44;20.00;99.90
34558;DHT22;24708;48.888;8.736;2023-05-23T12:16:15;20.50;99.90
34558;DHT22;24708;48.888;8.736;2023-05-23T12:18:42;20.50;99.90
34558;DHT22;24708;48.888;8.736;2023-05-23T12:21:10;20.30;99.90
34558;DHT22;24708;48.888;8.736;2023-05-23T12:23:39;20.60;99.90
34558;DHT22;24708;48.888;8.736;2023-05-23T12:26:08;21.20;99.90
34558;DHT22;24708;48.888;8.736;2023-05-23T12:28:45;21.00;99.90
34558;DHT22;24708;48.888;8.736;2023-05-23T12:31:16;21.10;99.90
34558;DHT22;24708;48.888;8.736;2023-05-23T12:33:47;20.90;99.90
34558;DHT22;24708;48.888;8.736;2023-05-23T12:36:24;20.60;99.90
34558;DHT22;24708;48.888;8.736;2023-05-23T12:39:01;21.30;99.90
34558;DHT22;24708;48.888;8.736;2023-05-23T12:41:32;20.60;99.90
34558;DHT22;24708;48.888;8.736;2023-05-23T12:44:01;19.60;99.90
34558;DHT22;24708;48.888;8.736;2023-05-23T12:46:29;19.30;99.90
34558;DHT22;24708;48.888;8.736;2023-05-23T12:48:57;18.70;99.90
34558;DHT22;24708;48.888;8.736;2023-05-23T12:51:25;18.40;99.90
34558;DHT22;24708;48.888;8.736;2023-05-23T12:53:53;18.10;99.90
34558;DHT22;24708;48.888;8.736;2023-05-23T12:56:20;17.70;99.90
34558;DHT22;24708;48.888;8.736;2023-05-23T12:58:54;17.70;99.90
34558;DHT22;24708;48.888;8.736;2023-05-23T13:06:25;17.90;99.90
34558;DHT22;24708;48.888;8.736;2023-05-23T13:08:55;18.00;99.90
34558;DHT22;24708;48.888;8.736;2023-05-23T13:13:50;18.20;99.90
34558;DHT22;24708;48.888;8.736;2023-05-23T13:16:18;18.20;99.90
34558;DHT22;24708;48.888;8.736;2023-05-23T13:18:46;18.20;99.90
34558;DHT22;24708;48.888;8.736;2023-05-23T13:23:40;18.30;99.90
34558;DHT22;24708;48.888;8.736;2023-05-23T13:26:08;18.50;99.90
34558;DHT22;24708;48.888;8.736;2023-05-23T13:28:35;18.80;99.90
34558;DHT22;24708;48.888;8.736;2023-05-23T13:31:02;18.80;99.90
34558;DHT22;24708;48.888;8.736;2023-05-23T13:33:29;18.90;99.90
34558;DHT22;24708;48.888;8.736;2023-05-23T13:35:57;19.10;99.90
34558;DHT22;24708;48.888;8.736;2023-05-23T13:38:24;19.40;99.90
34558;DHT22;24708;48.888;8.736;2023-05-23T13:40:53;19.40;99.90
34558;DHT22;24708;48.888;8.736;2023-05-23T13:43:21;19.40;99.90
34558;DHT22;24708;48.888;8.736;2023-05-23T13:45:48;19.40;99.90
34558;DHT22;24708;48.888;8.736;2023-05-23T13:48:15;19.90;99.90
34558;DHT22;24708;48.888;8.736;2023-05-23T13:50:46;19.60;99.90
34558;DHT22;24708;48.888;8.736;2023-05-23T13:53:19;19.90;99.90
34558;DHT22;24708;48.888;8.736;2023-05-23T13:55:47;20.70;99.90
34558;DHT22;24708;48.888;8.736;2023-05-23T13:58:15;20.60;99.90
34558;DHT22;24708;48.888;8.736;2023-05-23T14:00:45;20.70;99.90
34558;DHT22;24708;48.888;8.736;2023-05-23T14:03:18;20.90;99.90
34558;DHT22;24708;48.888;8.736;2023-05-23T14:05:45;21.00;99.90
34558;DHT22;24708;48.888;8.736;2023-05-23T14:08:17;20.10;99.90
34558;DHT22;24708;48.888;8.736;2023-05-23T14:10:48;20.20;99.90
34558;DHT22;24708;48.888;8.736;2023-05-23T14:13:16;20.20;99.90
34558;DHT22;24708;48.888;8.736;2023-05-23T14:15:47;20.20;99.90
34558;DHT22;24708;48.888;8.736;2023-05-23T14:18:14;19.80;99.90
34558;DHT22;24708;48.888;8.736;2023-05-23T14:20:41;19.90;99.90
34558;DHT22;24708;48.888;8.736;2023-05-23T14:23:09;19.60;99.90
34558;DHT22;24708;48.888;8.736;2023-05-23T14:25:37;19.90;99.90
34558;DHT22;24708;48.888;8.736;2023-05-23T14:28:12;19.80;99.90
34558;DHT22;24708;48.888;8.736;2023-05-23T14:33:07;20.40;99.90
34558;DHT22;24708;48.888;8.736;2023-05-23T14:35:38;20.30;99.90
34558;DHT22;24708;48.888;8.736;2023-05-23T14:38:09;20.10;99.90
34558;DHT22;24708;48.888;8.736;2023-05-23T14:40:36;20.20;99.90
34558;DHT22;24708;48.888;8.736;2023-05-23T14:43:04;19.80;99.90
34558;DHT22;24708;48.888;8.736;2023-05-23T14:45:31;19.50;99.90
34558;DHT22;24708;48.888;8.736;2023-05-23T14:48:03;19.30;99.90
34558;DHT22;24708;48.888;8.736;2023-05-23T14:50:31;19.00;99.90
34558;DHT22;24708;48.888;8.736;2023-05-23T14:53:01;19.20;99.90
34558;DHT22;24708;48.888;8.736;2023-05-23T14:55:29;19.30;99.90
34558;DHT22;24708;48.888;8.736;2023-05-23T14:57:56;19.10;99.90
34558;DHT22;24708;48.888;8.736;2023-05-23T15:00:23;19.50;99.90
34558;DHT22;24708;48.888;8.736;2023-05-23T15:02:51;19.30;99.90
34558;DHT22;24708;48.888;8.736;2023-05-23T15:05:21;19.50;99.90
34558;DHT22;24708;48.888;8.736;2023-05-23T15:07:48;19.50;99.90
34558;DHT22;24708;48.888;8.736;2023-05-23T15:10:17;19.70;99.90
34558;DHT22;24708;48.888;8.736;2023-05-23T15:12:45;20.00;99.90
34558;DHT22;24708;48.888;8.736;2023-05-23T15:15:13;20.10;99.90
34558;DHT22;24708;48.888;8.736;2023-05-23T15:17:42;19.90;99.90
34558;DHT22;24708;48.888;8.736;2023-05-23T15:20:21;19.90;99.90
34558;DHT22;24708;48.888;8.736;2023-05-23T15:22:49;19.90;99.90
34558;DHT22;24708;48.888;8.736;2023-05-23T15:25:16;19.90;99.90
34558;DHT22;24708;48.888;8.736;2023-05-23T15:27:53;19.60;99.90
34558;DHT22;24708;48.888;8.736;2023-05-23T15:30:23;19.40;99.90
34558;DHT22;24708;48.888;8.736;2023-05-23T15:32:50;19.60;99.90
34558;DHT22;24708;48.888;8.736;2023-05-23T15:35:20;19.80;99.90
34558;DHT22;24708;48.888;8.736;2023-05-23T15:37:47;19.50;99.90
34558;DHT22;24708;48.888;8.736;2023-05-23T15:40:14;19.80;99.90
34558;DHT22;24708;48.888;8.736;2023-05-23T15:45:11;19.50;99.90
34558;DHT22;24708;48.888;8.736;2023-05-23T15:47:38;19.40;99.90
34558;DHT22;24708;48.888;8.736;2023-05-23T15:50:06;19.40;99.90
34558;DHT22;24708;48.888;8.736;2023-05-23T15:52:33;19.40;99.90
34558;DHT22;24708;48.888;8.736;2023-05-23T15:57:32;19.30;99.90
